Accueil
METAR-TAF:

METAR-TAF

Aéroports :

Palmer, Alaska, États-Unis

latitude: 61-36N, longitude: 149-05W, altitude: 74 m

Observation

Le bulletin a été fait il y a 1 heure et 4 minutes, à 21:53 UTC
Vent 6 kt de nord
Température -11°C
Humidité 78%
Pression 1005 hPa
Visibilité: 16.1 km
Nuages fragmentés à une hauteur de 2300 ft

METAR: PAAQ 222153Z 35006KT 10SM BKN023 M11/M14 A2968 RMK AO2 SLP058 T11061139

Heure: 13:57 (22:57 UTC)

Prévision

Le bulletin a été fait il y a 5 heures et 27 minutes, à 17:30 UTC
Prévision valable du 22 à 18 UTC au 23 à 18 UTC
Vent 5 kt de nord
Visibilité: 10 km
Nuages fragmentés à une hauteur de 3000 ft

TAF: PAAQ 221730Z 2218/2318 35005KT P6SM BKN030

Observations et prévisions météorologiques de plus de 4000 aéroports (messages METAR et TAF).

Les stations disponibles sont représentées par des disques jaunes et rouges sur la carte.

Passer la souris dessus pour voir le nom de la station.

Cliquer dessus pour voir les observations et prévisions météorologiques.

Pour changer de carte: cliquez sur les boutons verts avec une croix noire pour zoomer, sur le bouton vert avec un tiret pour effectuer un zoom arrière, ou sur les flèches vertes pour les cartes adjacentes.


METAR-TAF: